Martinsdale, Montana
Current Conditions -  °F | °C
As of 12:53 AM on Friday 24 Oct 2014 (Local Time) from KLVM Reporting Station
Overcast Overcast  
Wind Chill: 61°   Ceiling: 9000
Heat Index: 61°   Visibility: 10mi
Dew Point: 31°   Wind: 28mph
Humidity: 32%   Direction: 230°SW
Pressure: 29.91"   Gusts: 40mph
Location:  46.46°N, 110.31°W
Report Text: KLVM 240653Z AUTO 23024G35KT 10SM OVC090 16/M01 A2991 RMK AO2 PK WND 23035/0613 SLP092 T01611006 402000106
Loading
Personal Weather Stations






























Interactive Weather Map
Tropical Storm Tracking
New forecast layout! Learn more

10-Day Weather Forecast

Advertisements
Track Severe Weather on mobile